This is the latest recevied weather packets stored in our database for station/object KD6VEX-1. If no packets are shown the sender has not sent any weather packets the latest 10 day(s).
| Time | Temp. | Humidity | Pressure | Rain* | Wind** | Luminosity | Snow |
|---|---|---|---|---|---|---|---|
| 1777494463 | 26.67° C | 37% | 1015 hPa | 0 mm | - | - | - |
| 1777494163 | 26.67° C | 37% | 1015.1 hPa | 0 mm | - | - | - |
| 1777493263 | 26.11° C | 36% | 1015.4 hPa | 0 mm | - | - | - |
| 1777491463 | 26.11° C | 31% | 1015.7 hPa | 0 mm | - | - | - |
| 1777491163 | 26.11° C | 31% | 1015.7 hPa | 0 mm | - | - | - |
| 1777490863 | 26.11° C | 33% | 1015.8 hPa | 0 mm | - | - | - |
| 1777490566 | 25.56° C | 33% | 1015.9 hPa | 0 mm | - | - | - |
| 1777490263 | 25.56° C | 34% | 1016 hPa | 0 mm | - | - | - |
| 1777489967 | 25.56° C | 36% | 1016 hPa | 0 mm | - | - | - |
| 1777489063 | 25° C | 38% | 1016.2 hPa | 0 mm | - | - | - |
| 1777487863 | 23.89° C | 42% | 1016.4 hPa | 0 mm | - | - | - |
| 1777487563 | 23.89° C | 41% | 1016.6 hPa | 0 mm | - | - | - |
| 1777486663 | 22.78° C | 43% | 1016.7 hPa | 0 mm | - | - | - |
| 1777486363 | 22.78° C | 43% | 1016.8 hPa | 0 mm | - | - | - |
| 1777484263 | 20° C | 53% | 1017.1 hPa | 0 mm | - | - | - |
| 1777483363 | 18.89° C | 56% | 1017.2 hPa | 0 mm | - | - | - |
| 1777483063 | 18.89° C | 56% | 1017.3 hPa | 0 mm | - | - | - |
| 1777482763 | 18.33° C | 57% | 1017.2 hPa | 0 mm | - | - | - |
| 1777482463 | 17.78° C | 58% | 1017.1 hPa | 0 mm | - | - | - |
| 1777480663 | 15.56° C | 68% | 1017.4 hPa | 0 mm | - | - | - |
| 1777480365 | 15.56° C | 68% | 1017.5 hPa | 0 mm | - | - | - |
| 1777480063 | 15° C | 70% | 1017.3 hPa | 0 mm | - | - | - |
| 1777479463 | 13.89° C | 75% | 1017.5 hPa | 0 mm | - | - | - |
| 1777476763 | 9.44° C | 90% | 1017.7 hPa | 0 mm | - | - | - |
| 1777476463 | 8.89° C | 92% | 1017.7 hPa | 0 mm | - | - | - |
* Rain latest hour (hover to see other rain measurements)
** Current wind speed in m/s (hover to see current wind gust speed)